createdAt,value
2018-03-31T00:00:02.000Z,27.8
2018-03-31T00:02:02.000Z,27.7
2018-03-31T00:03:02.000Z,27.7
2018-03-31T00:04:02.000Z,27.7
2018-03-31T00:06:02.000Z,27.8
2018-03-31T00:08:02.000Z,27.7
2018-03-31T00:10:02.000Z,27.5
2018-03-31T00:11:02.000Z,27.5
2018-03-31T00:13:02.000Z,27.5
2018-03-31T00:15:02.000Z,27.5
2018-03-31T00:17:02.000Z,27.5
2018-03-31T00:18:02.000Z,27.5
2018-03-31T00:20:02.000Z,27.5
2018-03-31T00:22:02.000Z,27.4
2018-03-31T00:24:02.000Z,27.5
2018-03-31T00:25:47.000Z,26.9
2018-03-31T00:27:02.000Z,27.4
2018-03-31T00:29:02.000Z,27.4
2018-03-31T00:30:02.000Z,27.4
2018-03-31T00:32:02.000Z,27.5
2018-03-31T00:34:02.000Z,27.5
2018-03-31T00:35:02.000Z,27.5
2018-03-31T00:36:02.000Z,27.5
2018-03-31T00:37:46.000Z,27.6
2018-03-31T00:39:02.000Z,27.6
2018-03-31T00:40:02.000Z,27.6
2018-03-31T00:42:02.000Z,27.7
2018-03-31T00:44:02.000Z,27.6
2018-03-31T00:46:02.000Z,27.6
2018-03-31T00:48:02.000Z,27.6
2018-03-31T00:49:02.000Z,27.6
2018-03-31T00:50:02.000Z,27.6
2018-03-31T00:51:02.000Z,27.7
2018-03-31T00:53:02.000Z,27.7
2018-03-31T00:54:02.000Z,27.7
2018-03-31T00:55:02.000Z,27.8
2018-03-31T00:57:02.000Z,27.8
2018-03-31T00:59:02.000Z,27.7
2018-03-31T01:00:02.000Z,27.7
2018-03-31T01:02:02.000Z,27.6
2018-03-31T01:04:02.000Z,27.5
2018-03-31T01:05:02.000Z,27.5
2018-03-31T01:07:02.000Z,27.4
2018-03-31T01:08:02.000Z,27.4
2018-03-31T01:10:02.000Z,27.5
2018-03-31T01:11:02.000Z,27.5
2018-03-31T01:12:02.000Z,27.5
2018-03-31T01:14:02.000Z,27.6
2018-03-31T01:16:02.000Z,27.5
2018-03-31T01:18:02.000Z,27.4
2018-03-31T01:19:02.000Z,27.4
2018-03-31T01:21:02.000Z,27.4
2018-03-31T01:23:02.000Z,27.4
2018-03-31T01:24:02.000Z,27.4
2018-03-31T01:25:02.000Z,27.4
2018-03-31T01:27:02.000Z,27.5
2018-03-31T01:28:02.000Z,27.5
2018-03-31T01:30:02.000Z,27.5
2018-03-31T01:31:02.000Z,27.5
2018-03-31T01:33:02.000Z,27.6
2018-03-31T01:34:02.000Z,27.6
2018-03-31T01:36:02.000Z,27.6
2018-03-31T01:38:02.000Z,27.5
2018-03-31T01:39:02.000Z,27.5
2018-03-31T01:41:02.000Z,27.5
2018-03-31T01:43:02.000Z,27.5
2018-03-31T01:45:02.000Z,27.4
2018-03-31T01:47:02.000Z,27.4
2018-03-31T01:48:46.000Z,27.4
2018-03-31T01:50:02.000Z,27.4
2018-03-31T01:52:02.000Z,27.3
2018-03-31T01:54:02.000Z,27.3
2018-03-31T01:56:01.000Z,27.3
2018-03-31T01:57:01.000Z,27.3
2018-03-31T01:58:01.000Z,27.4
2018-03-31T01:59:02.000Z,27.5
2018-03-31T02:00:46.000Z,27.6
2018-03-31T02:02:01.000Z,27.6
2018-03-31T02:04:01.000Z,27.5
2018-03-31T02:05:01.000Z,27.5
2018-03-31T02:06:01.000Z,27.6
2018-03-31T02:08:01.000Z,27.6
2018-03-31T02:10:01.000Z,27.5
2018-03-31T02:12:01.000Z,27.5
2018-03-31T02:13:01.000Z,27.5
2018-03-31T02:15:02.000Z,27.5
2018-03-31T02:17:01.000Z,27.5
2018-03-31T02:18:01.000Z,27.5
2018-03-31T02:19:46.000Z,27.5
2018-03-31T02:21:01.000Z,27.5
2018-03-31T02:23:01.000Z,27.4
2018-03-31T02:25:01.000Z,27.4
2018-03-31T02:27:01.000Z,27.3
2018-03-31T02:28:01.000Z,27.4
2018-03-31T02:29:01.000Z,27.4
2018-03-31T02:30:01.000Z,27.5
2018-03-31T02:32:01.000Z,27.5
2018-03-31T02:33:01.000Z,27.5
2018-03-31T02:34:46.000Z,27.6
2018-03-31T02:36:01.000Z,27.5
2018-03-31T02:37:46.000Z,27.5
2018-03-31T02:39:01.000Z,27.4
2018-03-31T02:40:01.000Z,27.4
2018-03-31T02:42:01.000Z,27.4
2018-03-31T02:43:01.000Z,27.4
2018-03-31T02:44:01.000Z,27.5
2018-03-31T02:46:01.000Z,27.5
2018-03-31T02:47:01.000Z,27.5
2018-03-31T02:48:46.000Z,27.6
2018-03-31T02:50:01.000Z,27.6
2018-03-31T02:52:01.000Z,27.6
2018-03-31T02:54:01.000Z,27.5
2018-03-31T02:56:01.000Z,27.5
2018-03-31T02:58:01.000Z,27.4
2018-03-31T03:00:01.000Z,27.4
2018-03-31T03:01:01.000Z,27.3
2018-03-31T03:03:01.000Z,27.3
2018-03-31T03:05:01.000Z,27.3
2018-03-31T03:07:01.000Z,27.3
2018-03-31T03:08:01.000Z,27.3
2018-03-31T03:09:01.000Z,27.4
2018-03-31T03:10:46.000Z,27.5
2018-03-31T03:12:01.000Z,27.5
2018-03-31T03:13:01.000Z,27.5
2018-03-31T03:15:01.000Z,27.5
2018-03-31T03:17:01.000Z,27.5
2018-03-31T03:18:01.000Z,27.5
2018-03-31T03:19:01.000Z,27.5
2018-03-31T03:20:01.000Z,27.5
2018-03-31T03:22:01.000Z,27.6
2018-03-31T03:24:01.000Z,27.5
2018-03-31T03:26:01.000Z,27.4
2018-03-31T03:27:01.000Z,27.4
2018-03-31T03:29:01.000Z,27.4
2018-03-31T03:31:01.000Z,27.3
2018-03-31T03:33:01.000Z,27.2
2018-03-31T03:35:01.000Z,27.2
2018-03-31T03:36:46.000Z,27.2
2018-03-31T03:38:01.000Z,27.2
2018-03-31T03:40:01.000Z,27.2
2018-03-31T03:41:01.000Z,27.2
2018-03-31T03:43:01.000Z,27.3
2018-03-31T03:44:01.000Z,27.3
2018-03-31T03:46:01.000Z,27.3
2018-03-31T03:48:01.000Z,27.3
2018-03-31T03:50:01.000Z,27.2
2018-03-31T03:51:01.000Z,27.3
2018-03-31T03:53:01.000Z,27.3
2018-03-31T03:54:01.000Z,27.3
2018-03-31T03:55:01.000Z,27.4
2018-03-31T03:57:01.000Z,27.3
2018-03-31T03:59:01.000Z,27.3
2018-03-31T04:01:01.000Z,27.3
2018-03-31T04:02:01.000Z,27.3
2018-03-31T04:04:02.000Z,27.3
2018-03-31T04:05:02.000Z,27.3
2018-03-31T04:06:02.000Z,27.4
2018-03-31T04:08:02.000Z,27.4
2018-03-31T04:09:02.000Z,27.4
2018-03-31T04:11:02.000Z,27.4
2018-03-31T04:12:46.000Z,27.4
2018-03-31T04:14:02.000Z,27.4
2018-03-31T04:15:46.000Z,27.4
2018-03-31T04:17:02.000Z,27.3
2018-03-31T04:18:02.000Z,27.3
2018-03-31T04:20:02.000Z,27.3
2018-03-31T04:22:02.000Z,27.3
2018-03-31T04:24:02.000Z,27.3
2018-03-31T04:25:02.000Z,27.3
2018-03-31T04:26:46.000Z,27.4
2018-03-31T04:28:02.000Z,27.4
2018-03-31T04:30:02.000Z,27.3
2018-03-31T04:31:02.000Z,27.3
2018-03-31T04:33:02.000Z,27.3
2018-03-31T04:34:02.000Z,27.3
2018-03-31T04:36:02.000Z,27.3
2018-03-31T04:38:02.000Z,27.2
2018-03-31T04:39:02.000Z,27.2
2018-03-31T04:40:02.000Z,27.2
2018-03-31T04:41:02.000Z,27.2
2018-03-31T04:43:02.000Z,27.3
2018-03-31T04:44:02.000Z,27.3
2018-03-31T04:45:02.000Z,27.4
2018-03-31T04:46:02.000Z,27.4
2018-03-31T04:48:02.000Z,27.4
2018-03-31T04:49:02.000Z,27.4
2018-03-31T04:50:02.000Z,27.4
2018-03-31T04:51:02.000Z,27.5
2018-03-31T04:53:02.000Z,27.5
2018-03-31T04:55:02.000Z,27.5
2018-03-31T04:56:02.000Z,27.5
2018-03-31T04:58:02.000Z,27.4
2018-03-31T04:59:02.000Z,27.4
2018-03-31T05:00:02.000Z,27.4
2018-03-31T05:01:02.000Z,27.4
2018-03-31T05:03:02.000Z,27.5
2018-03-31T05:05:02.000Z,27.4
2018-03-31T05:06:47.000Z,27.3
2018-03-31T05:08:02.000Z,27.2
2018-03-31T05:09:02.000Z,27.3
2018-03-31T05:11:02.000Z,27.3
2018-03-31T05:13:02.000Z,27.2
2018-03-31T05:14:02.000Z,27.2
2018-03-31T05:16:02.000Z,27.3
2018-03-31T05:17:02.000Z,27.3
2018-03-31T05:18:02.000Z,27.3
2018-03-31T05:20:02.000Z,27.4
2018-03-31T05:22:02.000Z,27.4
2018-03-31T05:24:02.000Z,27.3
2018-03-31T05:25:47.000Z,27.2
2018-03-31T05:27:02.000Z,27.2
2018-03-31T05:29:02.000Z,27.2
2018-03-31T05:30:02.000Z,27.2
2018-03-31T05:31:02.000Z,27.3
2018-03-31T05:33:02.000Z,27.4
2018-03-31T05:34:02.000Z,27.4
2018-03-31T05:36:02.000Z,27.4
2018-03-31T05:37:02.000Z,27.4
2018-03-31T05:38:02.000Z,27.4
2018-03-31T05:39:02.000Z,27.4
2018-03-31T05:41:02.000Z,27.4
2018-03-31T05:42:02.000Z,27.4
2018-03-31T05:44:02.000Z,27.5
2018-03-31T05:46:02.000Z,27.4
2018-03-31T05:47:02.000Z,27.4
2018-03-31T05:49:02.000Z,27.4
2018-03-31T05:50:02.000Z,27.4
2018-03-31T06:27:50.000Z,25.6
2018-03-31T06:29:36.000Z,25.8
2018-03-31T06:31:36.000Z,26.3
2018-03-31T06:32:36.000Z,26.5
2018-03-31T06:34:36.000Z,26.9
2018-03-31T06:35:36.000Z,27.1
2018-03-31T06:37:36.000Z,27.3
2018-03-31T06:38:36.000Z,27.4
2018-03-31T06:40:36.000Z,27.7
2018-03-31T06:42:36.000Z,27.8
2018-03-31T06:43:36.000Z,27.9
2018-03-31T06:45:36.000Z,28
2018-03-31T06:47:36.000Z,28
2018-03-31T06:48:36.000Z,28
2018-03-31T06:50:36.000Z,28.1
2018-03-31T06:51:36.000Z,28.2
2018-03-31T06:52:36.000Z,28.3
2018-03-31T06:54:36.000Z,28.4
2018-03-31T06:56:36.000Z,28.4
2018-03-31T06:57:36.000Z,28.5
2018-03-31T06:59:21.000Z,28.5
2018-03-31T07:00:36.000Z,28.6
2018-03-31T07:02:36.000Z,28.6
2018-03-31T07:04:36.000Z,28.6
2018-03-31T07:05:36.000Z,28.7
2018-03-31T07:07:36.000Z,28.7
2018-03-31T07:08:36.000Z,28.8
2018-03-31T07:09:36.000Z,28.9
2018-03-31T07:11:36.000Z,28.9
2018-03-31T07:13:36.000Z,29
2018-03-31T07:15:36.000Z,28.9
2018-03-31T07:17:36.000Z,28.9
2018-03-31T07:18:36.000Z,28.9
2018-03-31T07:19:36.000Z,29
2018-03-31T07:21:21.000Z,29.1
2018-03-31T07:22:36.000Z,29.1
2018-03-31T07:23:36.000Z,29.1
2018-03-31T07:25:36.000Z,29.2
2018-03-31T07:27:36.000Z,29.1
2018-03-31T07:28:36.000Z,29.1
2018-03-31T07:30:36.000Z,29.2
2018-03-31T07:31:36.000Z,29.3
2018-03-31T07:33:36.000Z,29.3
2018-03-31T07:34:36.000Z,29.4
2018-03-31T07:36:36.000Z,29.4
2018-03-31T07:38:36.000Z,29.4
2018-03-31T07:40:36.000Z,29.2
2018-03-31T07:42:36.000Z,29.1
2018-03-31T07:44:36.000Z,29.1
2018-03-31T07:45:36.000Z,29.1
2018-03-31T07:47:36.000Z,29.2
2018-03-31T07:49:36.000Z,29.2
2018-03-31T07:50:36.000Z,29.3
2018-03-31T07:51:36.000Z,29.4
2018-03-31T07:52:36.000Z,29.5
2018-03-31T07:54:21.000Z,29.6
2018-03-31T07:55:36.000Z,29.6
2018-03-31T07:57:36.000Z,29.7
2018-03-31T07:59:36.000Z,29.7
2018-03-31T08:01:36.000Z,29.7
2018-03-31T08:03:36.000Z,29.8
2018-03-31T08:04:36.000Z,29.8
2018-03-31T08:06:36.000Z,29.9
2018-03-31T08:08:36.000Z,30
2018-03-31T08:10:36.000Z,30.1
2018-03-31T08:11:36.000Z,30.1
2018-03-31T08:13:36.000Z,30.1
2018-03-31T08:14:36.000Z,30
2018-03-31T08:15:36.000Z,29.9
2018-03-31T08:16:36.000Z,29.9
2018-03-31T08:17:36.000Z,29.8
2018-03-31T08:18:36.000Z,29.8
2018-03-31T08:20:36.000Z,29.7
2018-03-31T08:22:36.000Z,29.5
2018-03-31T08:24:36.000Z,29.3
2018-03-31T08:26:36.000Z,29.1
2018-03-31T08:27:36.000Z,29.1
2018-03-31T08:28:36.000Z,29.1
2018-03-31T08:30:36.000Z,29
2018-03-31T08:32:36.000Z,28.9
2018-03-31T08:34:36.000Z,28.9
2018-03-31T08:36:36.000Z,28.8
2018-03-31T08:38:36.000Z,28.7
2018-03-31T08:40:21.000Z,28.7
2018-03-31T08:41:36.000Z,28.6
2018-03-31T08:42:36.000Z,28.6
2018-03-31T08:43:36.000Z,28.7
2018-03-31T08:44:36.000Z,28.8
2018-03-31T08:46:36.000Z,28.8
2018-03-31T08:47:36.000Z,28.9
2018-03-31T08:49:21.000Z,28.9
2018-03-31T08:50:36.000Z,28.9
2018-03-31T08:52:21.000Z,28.8
2018-03-31T08:53:36.000Z,28.8
2018-03-31T08:55:36.000Z,28.7
2018-03-31T08:57:36.000Z,28.7
2018-03-31T08:59:36.000Z,28.6
2018-03-31T09:01:21.000Z,28.6
2018-03-31T09:02:36.000Z,28.6
2018-03-31T09:04:36.000Z,28.6
2018-03-31T09:06:36.000Z,28.5
2018-03-31T09:08:36.000Z,28.5
2018-03-31T09:10:21.000Z,28.5
2018-03-31T09:11:36.000Z,28.4
2018-03-31T09:12:36.000Z,28.5
2018-03-31T09:13:36.000Z,28.5
2018-03-31T09:15:36.000Z,28.6
2018-03-31T09:16:36.000Z,28.6
2018-03-31T09:17:36.000Z,28.7
2018-03-31T09:19:36.000Z,28.6
2018-03-31T09:20:35.000Z,28.6
2018-03-31T09:22:35.000Z,28.6
2018-03-31T09:23:35.000Z,28.6
2018-03-31T09:25:35.000Z,28.6
2018-03-31T09:27:35.000Z,28.5
2018-03-31T09:29:35.000Z,28.4
2018-03-31T09:31:35.000Z,28.4
2018-03-31T09:32:35.000Z,28.4
2018-03-31T09:34:35.000Z,28.4
2018-03-31T09:36:35.000Z,28.4
2018-03-31T09:37:35.000Z,28.4
2018-03-31T09:38:35.000Z,28.5
2018-03-31T09:39:35.000Z,28.6
2018-03-31T09:41:35.000Z,28.6
2018-03-31T09:42:35.000Z,28.6
2018-03-31T09:43:35.000Z,28.6
2018-03-31T09:44:35.000Z,28.6
2018-03-31T09:46:35.000Z,28.7
2018-03-31T09:47:35.000Z,28.7
2018-03-31T09:49:35.000Z,28.7
2018-03-31T09:51:35.000Z,28.6
2018-03-31T09:52:35.000Z,28.6
2018-03-31T09:53:35.000Z,28.6
2018-03-31T09:55:35.000Z,28.6
2018-03-31T09:56:35.000Z,28.6
2018-03-31T09:58:20.000Z,28.6
2018-03-31T09:59:35.000Z,28.6
2018-03-31T10:01:35.000Z,28.6
2018-03-31T10:02:35.000Z,28.6
2018-03-31T10:03:35.000Z,28.6
2018-03-31T10:04:35.000Z,28.7
2018-03-31T10:05:35.000Z,28.8
2018-03-31T10:07:35.000Z,28.9
2018-03-31T10:09:35.000Z,28.8
2018-03-31T10:11:35.000Z,28.7
2018-03-31T10:12:35.000Z,28.7
2018-03-31T10:13:35.000Z,28.7
2018-03-31T10:15:35.000Z,28.7
2018-03-31T10:17:35.000Z,28.6
2018-03-31T10:18:35.000Z,28.6
2018-03-31T10:20:35.000Z,28.6
2018-03-31T10:22:35.000Z,28.6
2018-03-31T10:24:36.000Z,28.5
2018-03-31T10:25:36.000Z,28.5
2018-03-31T10:27:36.000Z,28.5
2018-03-31T10:29:21.000Z,28.5
2018-03-31T10:30:36.000Z,28.5
2018-03-31T10:32:36.000Z,28.5
2018-03-31T10:33:36.000Z,28.5
2018-03-31T10:34:36.000Z,28.6
2018-03-31T10:36:36.000Z,28.7
2018-03-31T10:38:36.000Z,28.7
2018-03-31T10:40:36.000Z,28.6
2018-03-31T10:41:36.000Z,28.6
2018-03-31T10:43:36.000Z,28.6
2018-03-31T10:45:36.000Z,28.6
2018-03-31T10:47:36.000Z,28.6
2018-03-31T10:48:36.000Z,28.6
2018-03-31T10:50:36.000Z,28.6
2018-03-31T10:51:36.000Z,28.6
2018-03-31T10:52:36.000Z,28.7
2018-03-31T10:54:36.000Z,28.7
2018-03-31T10:55:36.000Z,28.7
2018-03-31T10:57:36.000Z,28.7
2018-03-31T10:58:36.000Z,28.7
2018-03-31T10:59:36.000Z,28.7
2018-03-31T11:00:36.000Z,28.7
2018-03-31T11:02:36.000Z,28.7
2018-03-31T11:03:36.000Z,28.7
2018-03-31T11:05:36.000Z,28.7
2018-03-31T11:06:36.000Z,28.7
2018-03-31T11:08:36.000Z,28.7
2018-03-31T11:10:21.000Z,28.4
2018-03-31T11:11:36.000Z,28.7
2018-03-31T11:12:36.000Z,28.7
2018-03-31T11:14:36.000Z,28.7
2018-03-31T11:15:36.000Z,28.7
2018-03-31T11:17:36.000Z,28.7
2018-03-31T11:19:36.000Z,28.7
2018-03-31T11:20:36.000Z,28.7
2018-03-31T11:21:36.000Z,28.7
2018-03-31T11:23:21.000Z,28.7
2018-03-31T11:24:36.000Z,28.7
2018-03-31T11:26:36.000Z,28.7
2018-03-31T11:27:36.000Z,28.7
2018-03-31T11:29:36.000Z,28.7
2018-03-31T11:30:36.000Z,28.7
2018-03-31T11:31:36.000Z,28.7
2018-03-31T11:33:36.000Z,28.8
2018-03-31T11:34:36.000Z,28.8
2018-03-31T11:36:36.000Z,28.8
2018-03-31T11:37:36.000Z,28.8
2018-03-31T11:39:36.000Z,28.7
2018-03-31T11:41:21.000Z,28.7
2018-03-31T11:42:36.000Z,28.6
2018-03-31T11:43:36.000Z,28.6
2018-03-31T11:44:36.000Z,28.6
2018-03-31T11:45:36.000Z,28.6
2018-03-31T11:46:36.000Z,28.7
2018-03-31T11:48:36.000Z,28.7
2018-03-31T11:50:36.000Z,28.6
2018-03-31T11:51:36.000Z,28.6
2018-03-31T11:55:22.000Z,28.1
2018-03-31T11:56:22.000Z,28.1
2018-03-31T11:58:22.000Z,28.2
2018-03-31T12:00:22.000Z,28.3
2018-03-31T12:01:22.000Z,28.3
2018-03-31T12:03:22.000Z,28.4
2018-03-31T12:05:22.000Z,28.4
2018-03-31T12:07:22.000Z,28.4
2018-03-31T12:09:22.000Z,28.3
2018-03-31T12:11:22.000Z,28.3
2018-03-31T12:12:22.000Z,28.4
2018-03-31T12:13:22.000Z,28.4
2018-03-31T12:15:22.000Z,28.5
2018-03-31T12:17:22.000Z,28.5
2018-03-31T12:19:22.000Z,28.5
2018-03-31T12:21:22.000Z,28.4
2018-03-31T12:22:22.000Z,28.4
2018-03-31T12:24:22.000Z,28.4
2018-03-31T12:25:22.000Z,28.5
2018-03-31T12:27:22.000Z,28.5
2018-03-31T12:29:22.000Z,28.5
2018-03-31T12:31:22.000Z,28.5
2018-03-31T12:33:22.000Z,28.4
2018-03-31T12:34:22.000Z,28.4
2018-03-31T12:36:22.000Z,28.4
2018-03-31T12:37:22.000Z,28.3
2018-03-31T12:38:22.000Z,28.4
2018-03-31T12:40:22.000Z,28.4
2018-03-31T12:42:22.000Z,28.4
2018-03-31T12:44:22.000Z,28.4
2018-03-31T12:45:22.000Z,28.4
2018-03-31T12:46:22.000Z,28.5
2018-03-31T12:48:22.000Z,28.5
2018-03-31T12:50:22.000Z,28.5
2018-03-31T12:51:22.000Z,28.5
2018-03-31T12:53:22.000Z,28.6
2018-03-31T12:55:22.000Z,28.5
2018-03-31T12:57:22.000Z,28.5
2018-03-31T12:58:22.000Z,28.5
2018-03-31T13:00:22.000Z,28.5
2018-03-31T13:01:22.000Z,28.5
2018-03-31T13:02:22.000Z,28.6
2018-03-31T13:03:22.000Z,28.6
2018-03-31T13:04:22.000Z,28.7
2018-03-31T13:06:22.000Z,28.7
2018-03-31T13:08:22.000Z,28.6
2018-03-31T13:10:22.000Z,28.6
2018-03-31T13:11:22.000Z,28.6
2018-03-31T13:13:22.000Z,28.5
2018-03-31T13:14:22.000Z,28.5
2018-03-31T13:16:22.000Z,28.5
2018-03-31T13:18:06.000Z,28.5
2018-03-31T13:19:22.000Z,28.5
2018-03-31T13:20:22.000Z,28.5
2018-03-31T13:21:22.000Z,28.5
2018-03-31T13:23:22.000Z,28.6
2018-03-31T13:24:22.000Z,28.6
2018-03-31T13:26:22.000Z,28.6
2018-03-31T13:28:22.000Z,28.6
2018-03-31T13:30:22.000Z,28.5
2018-03-31T13:32:22.000Z,28.5
2018-03-31T13:33:22.000Z,28.5
2018-03-31T13:35:22.000Z,28.5
2018-03-31T13:36:22.000Z,28.5
2018-03-31T13:38:22.000Z,28.5
2018-03-31T13:40:22.000Z,28.6
2018-03-31T13:42:22.000Z,28.7
2018-03-31T13:44:22.000Z,28.7
2018-03-31T13:46:22.000Z,28.7
2018-03-31T13:48:22.000Z,28.7
2018-03-31T13:50:22.000Z,28.7
2018-03-31T13:52:22.000Z,28.7
2018-03-31T13:54:22.000Z,28.7
2018-03-31T13:56:06.000Z,28.8
2018-03-31T13:57:22.000Z,28.8
2018-03-31T14:02:22.000Z,28.6
2018-03-31T14:04:07.000Z,28.7
2018-03-31T14:06:07.000Z,28.9
2018-03-31T14:07:07.000Z,29.1
2018-03-31T14:09:07.000Z,29.3
2018-03-31T14:11:07.000Z,29.5
2018-03-31T14:13:07.000Z,29.5
2018-03-31T14:15:07.000Z,29.4
2018-03-31T14:16:07.000Z,29.3
2018-03-31T14:17:07.000Z,29.3
2018-03-31T14:19:07.000Z,29.3
2018-03-31T14:21:07.000Z,29.3
2018-03-31T14:23:07.000Z,29.2
2018-03-31T14:24:52.000Z,29.1
2018-03-31T14:26:07.000Z,29
2018-03-31T14:27:07.000Z,29
2018-03-31T14:28:07.000Z,29.1
2018-03-31T14:29:07.000Z,29.1
2018-03-31T14:31:07.000Z,29.1
2018-03-31T14:33:07.000Z,29.1
2018-03-31T14:35:07.000Z,28.9
2018-03-31T14:36:07.000Z,28.9
2018-03-31T14:38:08.000Z,28.9
2018-03-31T14:40:08.000Z,28.9
2018-03-31T14:42:08.000Z,28.7
2018-03-31T14:43:08.000Z,28.7
2018-03-31T14:45:08.000Z,28.7
2018-03-31T14:47:08.000Z,28.7
2018-03-31T14:49:08.000Z,28.8
2018-03-31T14:50:08.000Z,28.9
2018-03-31T14:52:08.000Z,29
2018-03-31T14:53:08.000Z,29
2018-03-31T14:54:08.000Z,29.1
2018-03-31T14:55:08.000Z,29.1
2018-03-31T14:57:08.000Z,29.2
2018-03-31T14:59:08.000Z,29.2
2018-03-31T15:01:08.000Z,29.2
2018-03-31T15:02:08.000Z,29.2
2018-03-31T15:04:08.000Z,29.2
2018-03-31T15:05:08.000Z,29.2
2018-03-31T15:06:08.000Z,29.2
2018-03-31T15:08:08.000Z,29.2
2018-03-31T15:10:08.000Z,29.2
2018-03-31T15:11:08.000Z,29.1
2018-03-31T15:13:08.000Z,29.2
2018-03-31T15:15:08.000Z,29.2
2018-03-31T15:16:08.000Z,29.2
2018-03-31T15:18:08.000Z,29.3
2018-03-31T15:20:08.000Z,29.3
2018-03-31T15:21:08.000Z,29.3
2018-03-31T15:22:52.000Z,29.4
2018-03-31T15:24:08.000Z,29.4
2018-03-31T15:26:08.000Z,29.4
2018-03-31T15:27:52.000Z,29.4
2018-03-31T15:29:08.000Z,29.4
2018-03-31T15:30:08.000Z,29.4
2018-03-31T15:31:08.000Z,29.4
2018-03-31T15:33:08.000Z,29.5
2018-03-31T15:35:08.000Z,29.4
2018-03-31T15:37:08.000Z,29.3
2018-03-31T15:38:08.000Z,29.2
2018-03-31T15:40:08.000Z,29.2
2018-03-31T15:41:08.000Z,29.2
2018-03-31T15:42:08.000Z,29.3
2018-03-31T15:43:08.000Z,29.3
2018-03-31T15:45:08.000Z,29.3
2018-03-31T15:46:08.000Z,29.3
2018-03-31T15:48:08.000Z,29.2
2018-03-31T15:49:08.000Z,29.2
2018-03-31T15:50:08.000Z,29.2
2018-03-31T15:51:08.000Z,29.2
2018-03-31T15:53:08.000Z,29.2
2018-03-31T15:55:08.000Z,29.1
2018-03-31T15:56:08.000Z,29.1
2018-03-31T15:57:08.000Z,29.1
2018-03-31T15:59:08.000Z,29.1
2018-03-31T16:00:08.000Z,29.1
2018-03-31T16:02:08.000Z,29.1
2018-03-31T16:03:08.000Z,29.1
2018-03-31T16:05:08.000Z,29.2
2018-03-31T16:07:08.000Z,29.1
2018-03-31T16:09:08.000Z,29.1
2018-03-31T16:11:08.000Z,29.1
2018-03-31T16:12:08.000Z,29.1
2018-03-31T16:13:08.000Z,29.1
2018-03-31T16:15:08.000Z,29.2
2018-03-31T16:17:08.000Z,29.1
2018-03-31T16:19:08.000Z,29
2018-03-31T16:20:08.000Z,29
2018-03-31T16:21:08.000Z,29.1
2018-03-31T16:23:08.000Z,29.1
2018-03-31T16:24:08.000Z,29.1
2018-03-31T16:26:08.000Z,29.1
2018-03-31T16:27:08.000Z,29.1
2018-03-31T16:28:08.000Z,29.1
2018-03-31T16:30:08.000Z,29
2018-03-31T16:32:08.000Z,28.9
2018-03-31T16:33:08.000Z,28.9
2018-03-31T16:35:08.000Z,28.9
2018-03-31T16:36:08.000Z,28.9
2018-03-31T16:38:08.000Z,28.9
2018-03-31T16:39:08.000Z,28.9
2018-03-31T16:41:08.000Z,28.9
2018-03-31T16:43:08.000Z,28.8
2018-03-31T16:45:08.000Z,28.8
2018-03-31T16:46:08.000Z,28.8
2018-03-31T16:48:08.000Z,28.7
2018-03-31T16:49:08.000Z,28.7
2018-03-31T16:50:08.000Z,28.7
2018-03-31T16:52:08.000Z,28.8
2018-03-31T16:53:08.000Z,28.8
2018-03-31T16:54:08.000Z,28.9
2018-03-31T16:56:08.000Z,28.9
2018-03-31T16:58:08.000Z,28.8
2018-03-31T17:00:08.000Z,28.8
2018-03-31T17:02:08.000Z,28.7
2018-03-31T17:03:08.000Z,28.7
2018-03-31T17:04:08.000Z,28.7
2018-03-31T17:06:08.000Z,28.7
2018-03-31T17:08:08.000Z,28.6
2018-03-31T17:10:08.000Z,28.5
2018-03-31T17:12:08.000Z,28.5
2018-03-31T17:14:08.000Z,28.5
2018-03-31T17:15:08.000Z,28.5
2018-03-31T17:16:52.000Z,28.5
2018-03-31T17:18:08.000Z,28.5
2018-03-31T17:19:52.000Z,28.5
2018-03-31T17:21:08.000Z,28.5
2018-03-31T17:22:52.000Z,28.5
2018-03-31T17:24:08.000Z,28.4
2018-03-31T17:25:08.000Z,28.4
2018-03-31T17:27:08.000Z,28.5
2018-03-31T17:29:08.000Z,28.5
2018-03-31T17:30:08.000Z,28.5
2018-03-31T17:31:08.000Z,28.5
2018-03-31T17:32:52.000Z,28.5
2018-03-31T17:34:08.000Z,28.5
2018-03-31T17:35:08.000Z,28.5
2018-03-31T17:36:08.000Z,28.5
2018-03-31T17:38:08.000Z,28.5
2018-03-31T17:39:08.000Z,28.5
2018-03-31T17:41:08.000Z,28.4
2018-03-31T17:43:08.000Z,28.4
2018-03-31T17:45:08.000Z,28.3
2018-03-31T17:46:08.000Z,28.3
2018-03-31T17:47:08.000Z,28.4
2018-03-31T17:49:08.000Z,28.4
2018-03-31T17:50:53.000Z,28.4
2018-03-31T17:52:08.000Z,28.4
2018-03-31T17:54:08.000Z,28.3
2018-03-31T17:56:08.000Z,28.2
2018-03-31T17:58:08.000Z,28.1
2018-03-31T17:59:08.000Z,28.1
2018-03-31T18:01:08.000Z,28.2
2018-03-31T18:02:08.000Z,28.2
2018-03-31T18:04:08.000Z,28.2
2018-03-31T18:06:08.000Z,28.2
2018-03-31T18:08:08.000Z,28.2
2018-03-31T18:09:08.000Z,28.2
2018-03-31T18:10:08.000Z,28.3
2018-03-31T18:11:08.000Z,28.3
2018-03-31T18:13:08.000Z,28.3
2018-03-31T18:14:08.000Z,28.3
2018-03-31T18:16:08.000Z,28.2
2018-03-31T18:18:08.000Z,28.2
2018-03-31T18:19:08.000Z,28.1
2018-03-31T18:20:08.000Z,28.2
2018-03-31T18:22:08.000Z,28.2
2018-03-31T18:23:53.000Z,28.2
2018-03-31T18:25:08.000Z,28.2
2018-03-31T18:27:08.000Z,28.1
2018-03-31T18:28:08.000Z,28.1
2018-03-31T18:29:08.000Z,28.1
2018-03-31T18:31:08.000Z,28.1
2018-03-31T18:33:08.000Z,28.1
2018-03-31T18:35:08.000Z,28
2018-03-31T18:36:08.000Z,28
2018-03-31T18:38:08.000Z,28
2018-03-31T18:39:08.000Z,28
2018-03-31T18:40:08.000Z,28
2018-03-31T18:41:08.000Z,28
2018-03-31T18:42:53.000Z,28
2018-03-31T18:44:08.000Z,28
2018-03-31T18:45:08.000Z,28
2018-03-31T18:47:08.000Z,28.1
2018-03-31T18:48:53.000Z,28
2018-03-31T18:50:08.000Z,28
2018-03-31T18:51:08.000Z,28
2018-03-31T18:53:08.000Z,28
2018-03-31T18:55:08.000Z,28
2018-03-31T18:57:08.000Z,28
2018-03-31T18:58:08.000Z,28
2018-03-31T18:59:08.000Z,28
2018-03-31T19:01:08.000Z,27.9
2018-03-31T19:02:08.000Z,27.9
2018-03-31T19:03:08.000Z,27.9
2018-03-31T19:05:08.000Z,28
2018-03-31T19:07:08.000Z,28
2018-03-31T19:08:53.000Z,27.9
2018-03-31T19:10:08.000Z,27.9
2018-03-31T19:12:08.000Z,27.9
2018-03-31T19:13:53.000Z,27.9
2018-03-31T19:15:08.000Z,27.8
2018-03-31T19:16:08.000Z,27.9
2018-03-31T19:17:08.000Z,27.9
2018-03-31T19:19:08.000Z,28
2018-03-31T19:20:08.000Z,28
2018-03-31T19:21:08.000Z,28
2018-03-31T19:23:08.000Z,28
2018-03-31T19:25:08.000Z,28
2018-03-31T19:26:08.000Z,28
2018-03-31T19:28:08.000Z,27.9
2018-03-31T19:29:08.000Z,27.9
2018-03-31T19:31:08.000Z,27.9
2018-03-31T19:32:08.000Z,27.9
2018-03-31T19:34:08.000Z,28
2018-03-31T19:36:08.000Z,28
2018-03-31T19:38:08.000Z,27.9
2018-03-31T19:39:08.000Z,27.9
2018-03-31T19:41:08.000Z,28
2018-03-31T19:43:08.000Z,27.9
2018-03-31T19:45:08.000Z,27.8
2018-03-31T19:47:08.000Z,27.7
2018-03-31T19:48:53.000Z,27.7
2018-03-31T19:50:08.000Z,27.7
2018-03-31T19:51:08.000Z,27.7
2018-03-31T19:52:08.000Z,27.8
2018-03-31T19:54:08.000Z,27.8
2018-03-31T19:56:08.000Z,27.8
2018-03-31T19:57:07.000Z,27.8
2018-03-31T19:58:07.000Z,27.8
2018-03-31T19:59:52.000Z,27.9
2018-03-31T20:01:07.000Z,27.8
2018-03-31T20:02:07.000Z,27.8
2018-03-31T20:03:07.000Z,27.9
2018-03-31T20:04:07.000Z,27.9
2018-03-31T20:05:52.000Z,28
2018-03-31T20:07:07.000Z,27.9
2018-03-31T20:08:07.000Z,27.9
2018-03-31T20:09:07.000Z,27.9
2018-03-31T20:10:07.000Z,27.9
2018-03-31T20:12:07.000Z,28
2018-03-31T20:14:07.000Z,27.9
2018-03-31T20:15:07.000Z,27.9
2018-03-31T20:17:07.000Z,27.8
2018-03-31T20:19:07.000Z,27.8
2018-03-31T20:20:07.000Z,27.8
2018-03-31T20:21:07.000Z,27.8
2018-03-31T20:22:07.000Z,27.9
2018-03-31T20:24:07.000Z,27.9
2018-03-31T20:25:07.000Z,27.9
2018-03-31T20:27:07.000Z,28
2018-03-31T20:28:07.000Z,28
2018-03-31T20:30:07.000Z,28
2018-03-31T20:31:07.000Z,28
2018-03-31T20:32:07.000Z,28
2018-03-31T20:33:07.000Z,28
2018-03-31T20:35:08.000Z,28
2018-03-31T20:37:07.000Z,28
2018-03-31T20:39:08.000Z,27.9
2018-03-31T20:41:07.000Z,27.8
2018-03-31T20:43:07.000Z,27.7
2018-03-31T20:44:52.000Z,27.7
2018-03-31T20:46:07.000Z,27.6
2018-03-31T20:47:07.000Z,27.6
2018-03-31T20:48:07.000Z,27.7
2018-03-31T20:50:07.000Z,27.8
2018-03-31T20:52:07.000Z,27.7
2018-03-31T20:53:08.000Z,27.7
2018-03-31T20:55:07.000Z,27.7
2018-03-31T20:56:07.000Z,27.7
2018-03-31T20:57:07.000Z,27.7
2018-03-31T20:58:07.000Z,27.7
2018-03-31T21:00:07.000Z,27.8
2018-03-31T21:02:07.000Z,27.7
2018-03-31T21:04:07.000Z,27.6
2018-03-31T21:05:07.000Z,27.6
2018-03-31T21:07:07.000Z,27.6
2018-03-31T21:09:07.000Z,27.6
2018-03-31T21:10:07.000Z,27.7
2018-03-31T21:11:07.000Z,27.7
2018-03-31T21:13:07.000Z,27.6
2018-03-31T21:14:07.000Z,27.6
2018-03-31T21:16:07.000Z,27.7
2018-03-31T21:17:52.000Z,27.7
2018-03-31T21:19:07.000Z,27.6
2018-03-31T21:21:07.000Z,27.6
2018-03-31T21:23:07.000Z,27.5
2018-03-31T21:24:07.000Z,27.5